KTOI/TOI METAR and TAF weather

Enter ICAO airport designator
Station Type Date Time Source
KTOI METAR 2019/08/25 18:46 UTC NOAA

KTOI 251846Z AUTO 10009KT 10SM SCT022 BKN028 OVC039 29/25 A2998 RMK AO2 T02890250


Station Type Date Time Source
KTOI Decoded METAR 2019/08/25 18:46 UTC NOAA

Station name not available
Aug 25, 2019 - 02:46 PM EDT / 2019.08.25 1846 UTC
Wind: from the E (100 degrees) at 10 MPH (9 KT):0
Visibility: 10 mile(s):0
Sky conditions: overcast
Temperature: 84.0 F (28.9 C)
Dew Point: 77.0 F (25.0 C)
Relative Humidity: 79%
Pressure (altimeter): 29.98 in. Hg (1015 hPa)
ob: KTOI 251846Z AUTO 10009KT 10SM SCT022 BKN028 OVC039 29/25 A2998 RMK AO2 T02890250
cycle: 19

Station Type Date Time Source
KTOI TAF 2019/08/25 18:22 UTC NOAA

TAF KTOI 251720Z 2518/2618 07007KT P6SM VCSH SCT020
TEMPO 2521/2601 09008G16KT 5SM TSRA OVC030CB
FM260100 10004KT P6SM VCSH OVC030
FM260400 11002KT P6SM OVC030
FM261400 12006KT P6SM SCT030

Example: see airport list